createdAt,value
2023-02-11T00:01:19.288Z,-5.54
2023-02-11T00:03:45.986Z,-5.56
2023-02-11T00:06:12.853Z,-5.67
2023-02-11T00:08:40.059Z,-5.69
2023-02-11T00:11:07.639Z,-5.70
2023-02-11T00:13:34.239Z,-5.62
2023-02-11T00:16:06.983Z,-5.62
2023-02-11T00:18:33.756Z,-5.83
2023-02-11T00:21:00.319Z,-5.96
2023-02-11T00:23:26.905Z,-5.89
2023-02-11T00:25:53.597Z,-5.85
2023-02-11T00:28:20.230Z,-5.88
2023-02-11T00:30:54.553Z,-5.86
2023-02-11T00:33:21.210Z,-5.92
2023-02-11T00:35:47.979Z,-6.00
2023-02-11T00:38:14.756Z,-5.90
2023-02-11T00:40:41.403Z,-5.97
2023-02-11T00:43:08.072Z,-6.02
2023-02-11T00:45:34.677Z,-5.97
2023-02-11T00:48:01.935Z,-5.95
2023-02-11T00:50:28.593Z,-5.96
2023-02-11T00:52:55.700Z,-6.02
2023-02-11T00:55:22.397Z,-6.08
2023-02-11T00:57:49.293Z,-6.11
2023-02-11T01:00:16.785Z,-5.93
2023-02-11T01:02:44.612Z,-6.03
2023-02-11T01:05:11.586Z,-6.08
2023-02-11T01:07:38.281Z,-6.05
2023-02-11T01:10:05.169Z,-6.05
2023-02-11T01:12:33.524Z,-6.11
2023-02-11T01:15:02.175Z,-6.15
2023-02-11T01:17:28.800Z,-6.16
2023-02-11T01:19:55.624Z,-6.16
2023-02-11T01:22:22.340Z,-6.18
2023-02-11T01:24:48.904Z,-6.14
2023-02-11T01:27:15.525Z,-6.14
2023-02-11T01:29:42.102Z,-6.09
2023-02-11T01:32:08.823Z,-6.15
2023-02-11T01:34:35.437Z,-6.14
2023-02-11T01:37:02.118Z,-6.12
2023-02-11T01:39:29.209Z,-6.08
2023-02-11T01:41:55.816Z,-6.13
2023-02-11T01:44:46.080Z,-6.16
2023-02-11T01:47:12.705Z,-6.04
2023-02-11T01:49:57.872Z,-6.23
2023-02-11T01:52:39.174Z,-6.33
2023-02-11T01:55:29.331Z,-6.30
2023-02-11T01:57:59.798Z,-6.30
2023-02-11T02:00:32.568Z,-6.20
2023-02-11T02:03:06.751Z,-6.22
2023-02-11T02:05:53.573Z,-6.30
2023-02-11T02:08:32.509Z,-6.38
2023-02-11T02:11:03.377Z,-6.27
2023-02-11T02:13:34.790Z,-6.38
2023-02-11T02:16:13.326Z,-6.45
2023-02-11T02:19:21.572Z,-6.38
2023-02-11T02:22:19.962Z,-6.40
2023-02-11T02:25:02.495Z,-6.40
2023-02-11T02:27:50.748Z,-6.40
2023-02-11T02:30:35.826Z,-6.43
2023-02-11T02:33:20.519Z,-6.36
2023-02-11T02:36:01.782Z,-6.41
2023-02-11T02:38:38.258Z,-6.46
2023-02-11T02:41:11.110Z,-6.39
2023-02-11T02:43:43.847Z,-6.49
2023-02-11T02:46:15.848Z,-6.55
2023-02-11T02:48:43.565Z,-6.64
2023-02-11T02:51:37.852Z,-6.65
2023-02-11T02:54:25.921Z,-6.59
2023-02-11T02:57:29.996Z,-6.62
2023-02-11T03:00:19.798Z,-6.70
2023-02-11T03:02:56.971Z,-6.70
2023-02-11T03:05:29.151Z,-6.69
2023-02-11T03:08:24.442Z,-6.67
2023-02-11T03:10:53.630Z,-6.80
2023-02-11T03:13:24.579Z,-6.76
2023-02-11T03:15:54.354Z,-6.77
2023-02-11T03:18:24.587Z,-6.90
2023-02-11T03:20:54.289Z,-6.85
2023-02-11T03:23:44.698Z,-6.87
2023-02-11T03:26:30.036Z,-6.95
2023-02-11T03:29:18.001Z,-6.97
2023-02-11T03:31:53.607Z,-7.08
2023-02-11T03:34:38.209Z,-7.06
2023-02-11T03:37:19.676Z,-7.08
2023-02-11T03:40:01.784Z,-7.12
2023-02-11T03:42:34.980Z,-7.04
2023-02-11T03:45:08.174Z,-7.06
2023-02-11T03:47:38.315Z,-7.08
2023-02-11T03:50:07.676Z,-7.16
2023-02-11T03:52:36.547Z,-7.19
2023-02-11T03:55:08.914Z,-7.18
2023-02-11T03:57:35.649Z,-7.27
2023-02-11T04:00:02.243Z,-7.28
2023-02-11T04:02:38.972Z,-7.24
2023-02-11T04:05:07.623Z,-7.30
2023-02-11T04:07:34.316Z,-7.32
2023-02-11T04:10:01.245Z,-7.35
2023-02-11T04:12:27.844Z,-7.15
2023-02-11T04:14:54.452Z,-7.12
2023-02-11T04:17:21.079Z,-7.19
2023-02-11T04:19:47.650Z,-7.33
2023-02-11T04:22:14.337Z,-7.42
2023-02-11T04:24:40.899Z,-7.51
2023-02-11T04:27:07.513Z,-7.51
2023-02-11T04:29:34.276Z,-7.54
2023-02-11T04:32:00.948Z,-7.49
2023-02-11T04:34:27.699Z,-7.42
2023-02-11T04:36:54.354Z,-7.48
2023-02-11T04:39:21.029Z,-7.55
2023-02-11T04:41:47.647Z,-7.49
2023-02-11T04:44:14.387Z,-7.48
2023-02-11T04:46:40.955Z,-7.38
2023-02-11T04:49:07.526Z,-7.60
2023-02-11T04:51:34.295Z,-7.56
2023-02-11T04:54:00.984Z,-7.70
2023-02-11T04:56:27.592Z,-7.59
2023-02-11T04:58:54.249Z,-7.57
2023-02-11T05:01:20.956Z,-7.64
2023-02-11T05:03:47.693Z,-7.64
2023-02-11T05:06:14.295Z,-7.58
2023-02-11T05:08:41.187Z,-7.53
2023-02-11T05:11:08.779Z,-7.61
2023-02-11T05:13:35.407Z,-7.58
2023-02-11T05:16:02.176Z,-7.57
2023-02-11T05:18:28.769Z,-7.53
2023-02-11T05:20:55.373Z,-7.53
2023-02-11T05:23:22.023Z,-7.48
2023-02-11T05:25:48.823Z,-7.59
2023-02-11T05:28:17.052Z,-7.56
2023-02-11T05:30:43.726Z,-7.45
2023-02-11T05:33:10.331Z,-7.52
2023-02-11T05:35:36.956Z,-7.60
2023-02-11T05:38:03.533Z,-7.61
2023-02-11T05:40:30.303Z,-7.71
2023-02-11T05:42:56.900Z,-7.70
2023-02-11T05:45:23.524Z,-7.69
2023-02-11T05:47:50.255Z,-7.65
2023-02-11T05:50:17.028Z,-7.62
2023-02-11T05:52:43.584Z,-7.58
2023-02-11T05:55:10.390Z,-7.53
2023-02-11T05:57:37.001Z,-7.43
2023-02-11T06:00:04.721Z,-7.44
2023-02-11T06:02:39.507Z,-7.25
2023-02-11T06:05:06.783Z,-7.16
2023-02-11T06:07:33.515Z,-7.12
2023-02-11T06:10:00.448Z,-7.23
2023-02-11T06:12:27.395Z,-7.29
2023-02-11T06:14:54.213Z,-7.30
2023-02-11T06:17:20.783Z,-7.29
2023-02-11T06:19:47.370Z,-7.22
2023-02-11T06:22:13.985Z,-7.18
2023-02-11T06:24:59.863Z,-7.18
2023-02-11T06:27:27.487Z,-7.11
2023-02-11T06:29:54.140Z,-6.91
2023-02-11T06:32:42.084Z,-6.82
2023-02-11T06:35:10.050Z,-6.90
2023-02-11T06:37:38.380Z,-6.81
2023-02-11T06:40:05.378Z,-6.66
2023-02-11T06:42:31.973Z,-6.54
2023-02-11T06:44:58.703Z,-6.40
2023-02-11T06:47:25.373Z,-6.38
2023-02-11T06:49:52.013Z,-6.34
2023-02-11T06:52:18.580Z,-6.06
2023-02-11T06:54:45.174Z,-5.89
2023-02-11T06:57:11.839Z,-5.68
2023-02-11T06:59:38.512Z,-5.49
2023-02-11T07:02:05.146Z,-5.22
2023-02-11T07:04:31.848Z,-5.06
2023-02-11T07:06:58.449Z,-4.97
2023-02-11T07:09:25.046Z,-4.81
2023-02-11T07:11:51.636Z,-4.59
2023-02-11T07:14:18.281Z,-4.36
2023-02-11T07:16:44.884Z,-4.21
2023-02-11T07:19:11.467Z,-4.03
2023-02-11T07:21:38.067Z,-4.00
2023-02-11T07:24:11.453Z,-3.96
2023-02-11T07:26:38.711Z,-3.94
2023-02-11T07:29:05.323Z,-3.88
2023-02-11T07:31:32.374Z,-3.83
2023-02-11T07:34:01.860Z,-3.94
2023-02-11T07:36:31.781Z,-3.95
2023-02-11T07:39:00.119Z,-3.79
2023-02-11T07:41:27.637Z,-3.39
2023-02-11T07:43:54.519Z,-3.00
2023-02-11T07:46:23.787Z,-2.83
2023-02-11T07:48:51.018Z,-2.79
2023-02-11T07:51:23.677Z,-2.61
2023-02-11T07:53:50.694Z,-2.58
2023-02-11T07:56:18.865Z,-2.68
2023-02-11T07:58:45.849Z,-2.51
2023-02-11T08:01:15.477Z,-2.31
2023-02-11T08:03:42.878Z,-2.22
2023-02-11T08:06:15.142Z,-2.31
2023-02-11T08:08:42.490Z,-2.34
2023-02-11T08:11:11.647Z,-2.44
2023-02-11T08:13:38.696Z,-2.31
2023-02-11T08:16:06.563Z,-2.10
2023-02-11T08:18:34.002Z,-1.96
2023-02-11T08:21:07.794Z,-1.57
2023-02-11T08:23:37.460Z,-1.03
2023-02-11T08:26:05.887Z,0.14
2023-02-11T08:28:36.715Z,0.81
2023-02-11T08:31:12.417Z,1.87
2023-02-11T08:33:40.961Z,2.76
2023-02-11T08:36:29.057Z,3.16
2023-02-11T08:39:12.155Z,4.19
2023-02-11T08:41:44.898Z,4.80
2023-02-11T08:44:12.115Z,5.11
2023-02-11T08:46:38.741Z,5.13
2023-02-11T08:49:05.369Z,5.06
2023-02-11T08:51:33.005Z,5.98
2023-02-11T08:54:00.729Z,7.03
2023-02-11T08:56:28.666Z,6.05
2023-02-11T08:58:55.344Z,5.91
2023-02-11T09:01:27.474Z,5.69
2023-02-11T09:03:54.532Z,5.40
2023-02-11T09:06:22.978Z,5.37
2023-02-11T09:08:52.235Z,4.80
2023-02-11T09:11:24.903Z,5.25
2023-02-11T09:13:54.180Z,4.84
2023-02-11T09:16:23.783Z,4.65
2023-02-11T09:18:50.806Z,4.13
2023-02-11T09:21:19.632Z,3.17
2023-02-11T09:23:47.855Z,2.97
2023-02-11T09:26:16.950Z,2.86
2023-02-11T09:28:43.966Z,3.47
2023-02-11T09:31:13.989Z,4.51
2023-02-11T09:33:47.897Z,5.69
2023-02-11T09:36:17.751Z,6.36
2023-02-11T09:38:44.751Z,8.23
2023-02-11T09:41:23.533Z,9.37
2023-02-11T09:43:58.655Z,9.53
2023-02-11T09:46:30.188Z,7.03
2023-02-11T09:48:57.065Z,5.79
2023-02-11T09:51:29.772Z,4.67
2023-02-11T09:54:03.128Z,4.17
2023-02-11T09:56:31.512Z,3.79
2023-02-11T09:58:58.150Z,3.79
2023-02-11T10:01:54.290Z,4.94
2023-02-11T10:04:48.786Z,6.20
2023-02-11T10:07:34.471Z,6.03
2023-02-11T10:10:15.474Z,7.94
2023-02-11T10:12:51.047Z,8.41
2023-02-11T10:15:45.489Z,9.44
2023-02-11T10:18:41.390Z,9.64
2023-02-11T10:21:17.212Z,10.77
2023-02-11T10:23:49.397Z,12.01
2023-02-11T10:26:18.360Z,12.56
2023-02-11T10:28:48.510Z,13.20
2023-02-11T10:31:20.855Z,12.58
2023-02-11T10:33:56.728Z,12.69
2023-02-11T10:36:34.266Z,13.81
2023-02-11T10:39:10.037Z,14.36
2023-02-11T10:41:41.901Z,15.82
2023-02-11T10:44:08.484Z,16.64
2023-02-11T10:46:40.208Z,16.73
2023-02-11T10:49:06.928Z,17.66
2023-02-11T10:51:34.313Z,18.13
2023-02-11T10:54:03.633Z,19.38
2023-02-11T10:56:34.324Z,18.46
2023-02-11T10:59:28.530Z,20.29
2023-02-11T11:02:06.019Z,20.99
2023-02-11T11:04:42.745Z,21.53
2023-02-11T11:07:21.706Z,21.57
2023-02-11T11:09:55.633Z,20.34
2023-02-11T11:12:46.073Z,19.92
2023-02-11T11:15:21.745Z,18.11
2023-02-11T11:18:21.023Z,17.48
2023-02-11T11:20:58.735Z,17.43
2023-02-11T11:23:27.291Z,17.54
2023-02-11T11:26:10.047Z,17.66
2023-02-11T11:28:42.767Z,17.08
2023-02-11T11:31:16.072Z,15.04
2023-02-11T11:33:46.479Z,13.72
2023-02-11T11:36:40.117Z,12.82
2023-02-11T11:39:33.844Z,10.83
2023-02-11T11:42:04.312Z,10.60
2023-02-11T11:44:35.840Z,11.82
2023-02-11T11:47:11.214Z,11.01
2023-02-11T11:49:45.404Z,10.23
2023-02-11T11:52:29.232Z,10.11
2023-02-11T11:55:13.116Z,14.99
2023-02-11T11:57:40.385Z,17.55
2023-02-11T12:00:19.228Z,18.17
2023-02-11T12:02:52.017Z,19.34
2023-02-11T12:05:29.390Z,21.36
2023-02-11T12:08:24.638Z,20.56
2023-02-11T12:10:56.912Z,21.87
2023-02-11T12:13:41.865Z,21.51
2023-02-11T12:16:19.548Z,20.75
2023-02-11T12:19:13.918Z,22.75
2023-02-11T12:22:10.348Z,22.73
2023-02-11T12:24:55.538Z,23.35
2023-02-11T12:27:28.206Z,23.45
2023-02-11T12:30:03.665Z,22.34
2023-02-11T12:32:31.823Z,20.97
2023-02-11T12:35:37.275Z,21.79
2023-02-11T12:38:28.972Z,18.61
2023-02-11T12:41:10.514Z,16.25
2023-02-11T12:43:39.378Z,15.24
2023-02-11T12:46:47.695Z,15.15
2023-02-11T12:49:42.187Z,14.17
2023-02-11T12:52:20.106Z,12.02
2023-02-11T12:54:58.188Z,11.25
2023-02-11T12:57:28.140Z,10.06
2023-02-11T13:00:25.197Z,10.31
2023-02-11T13:03:18.099Z,14.57
2023-02-11T13:05:49.620Z,15.23
2023-02-11T13:08:18.085Z,17.74
2023-02-11T13:10:54.001Z,15.31
2023-02-11T13:13:30.597Z,14.17
2023-02-11T13:16:10.081Z,13.92
2023-02-11T13:18:40.810Z,15.53
2023-02-11T13:21:16.489Z,14.60
2023-02-11T13:24:19.382Z,15.08
2023-02-11T13:26:51.352Z,17.88
2023-02-11T13:29:25.971Z,18.42
2023-02-11T13:31:54.690Z,19.72
2023-02-11T13:34:34.276Z,19.87
2023-02-11T13:37:00.920Z,19.00
2023-02-11T13:39:27.601Z,18.17
2023-02-11T13:42:03.066Z,18.05
2023-02-11T13:44:29.989Z,14.68
2023-02-11T13:47:01.447Z,13.05
2023-02-11T13:49:40.792Z,12.11
2023-02-11T13:52:42.686Z,11.21
2023-02-11T13:55:21.477Z,11.03
2023-02-11T13:58:07.985Z,10.50
2023-02-11T14:00:34.656Z,9.46
2023-02-11T14:03:31.991Z,9.76
2023-02-11T14:06:26.699Z,10.22
2023-02-11T14:09:13.513Z,10.49
2023-02-11T14:11:40.815Z,11.12
2023-02-11T14:14:34.955Z,11.36
2023-02-11T14:17:07.691Z,11.38
2023-02-11T14:19:35.749Z,11.27
2023-02-11T14:22:19.253Z,10.39
2023-02-11T14:24:48.871Z,11.32
2023-02-11T14:27:23.117Z,11.39
2023-02-11T14:29:51.088Z,10.57
2023-02-11T14:32:49.141Z,10.18
2023-02-11T14:35:33.685Z,9.76
2023-02-11T14:38:22.181Z,9.44
2023-02-11T14:41:00.202Z,9.23
2023-02-11T14:43:41.099Z,9.16
2023-02-11T14:46:08.845Z,8.93
2023-02-11T14:48:37.954Z,9.17
2023-02-11T14:51:19.160Z,11.78
2023-02-11T14:53:49.963Z,11.98
2023-02-11T14:56:22.096Z,11.69
2023-02-11T14:58:51.636Z,11.09
2023-02-11T15:01:41.636Z,10.49
2023-02-11T15:04:29.544Z,9.89
2023-02-11T15:06:59.519Z,9.40
2023-02-11T15:09:42.828Z,8.69
2023-02-11T15:12:23.813Z,8.30
2023-02-11T15:14:58.102Z,7.95
2023-02-11T15:17:27.734Z,7.72
2023-02-11T15:19:57.945Z,7.44
2023-02-11T15:22:27.332Z,7.11
2023-02-11T15:25:07.767Z,6.97
2023-02-11T15:27:45.636Z,6.95
2023-02-11T15:30:34.091Z,6.93
2023-02-11T15:33:03.556Z,6.80
2023-02-11T15:35:37.167Z,6.67
2023-02-11T15:38:04.788Z,6.51
2023-02-11T15:40:34.841Z,6.36
2023-02-11T15:43:04.315Z,6.27
2023-02-11T15:45:34.720Z,6.25
2023-02-11T15:48:23.256Z,6.14
2023-02-11T15:50:59.104Z,6.01
2023-02-11T15:53:33.344Z,5.81
2023-02-11T15:56:08.683Z,5.63
2023-02-11T15:58:40.752Z,5.53
2023-02-11T16:01:08.828Z,5.49
2023-02-11T16:03:35.720Z,5.39
2023-02-11T16:06:34.910Z,5.22
2023-02-11T16:09:05.903Z,5.13
2023-02-11T16:11:48.448Z,5.05
2023-02-11T16:14:27.128Z,5.02
2023-02-11T16:17:02.235Z,5.01
2023-02-11T16:19:30.186Z,4.89
2023-02-11T16:21:59.935Z,4.74
2023-02-11T16:24:30.753Z,4.56
2023-02-11T16:27:02.757Z,4.44
2023-02-11T16:29:31.798Z,4.44
2023-02-11T16:32:08.639Z,4.26
2023-02-11T16:34:36.075Z,4.01
2023-02-11T16:37:06.208Z,3.75
2023-02-11T16:39:33.134Z,3.53
2023-02-11T16:42:00.348Z,3.42
2023-02-11T16:44:27.277Z,3.20
2023-02-11T16:46:54.668Z,2.97
2023-02-11T16:49:28.124Z,2.79
2023-02-11T16:52:01.057Z,2.64
2023-02-11T16:54:29.475Z,2.54
2023-02-11T16:56:56.969Z,2.52
2023-02-11T16:59:23.837Z,2.42
2023-02-11T17:01:53.109Z,2.50
2023-02-11T17:04:31.172Z,2.48
2023-02-11T17:06:58.702Z,2.34
2023-02-11T17:09:30.358Z,2.20
2023-02-11T17:11:57.747Z,2.14
2023-02-11T17:14:24.641Z,2.02
2023-02-11T17:16:51.351Z,1.95
2023-02-11T17:19:21.101Z,1.92
2023-02-11T17:21:50.069Z,1.82
2023-02-11T17:24:16.834Z,1.78
2023-02-11T17:26:44.994Z,1.78
2023-02-11T17:29:15.132Z,1.72
2023-02-11T17:31:41.981Z,1.67
2023-02-11T17:34:09.076Z,1.61
2023-02-11T17:36:36.353Z,1.58
2023-02-11T17:39:06.313Z,1.68
2023-02-11T17:41:34.401Z,1.66
2023-02-11T17:44:01.459Z,1.67
2023-02-11T17:46:28.662Z,1.69
2023-02-11T17:48:56.096Z,1.73
2023-02-11T17:51:32.016Z,1.83
2023-02-11T17:54:01.749Z,1.78
2023-02-11T17:56:31.159Z,1.70
2023-02-11T17:58:57.852Z,1.67
2023-02-11T18:01:27.555Z,1.69
2023-02-11T18:03:54.211Z,1.73
2023-02-11T18:06:21.618Z,1.71
2023-02-11T18:08:48.606Z,1.54
2023-02-11T18:11:16.476Z,1.59
2023-02-11T18:13:44.135Z,1.68
2023-02-11T18:16:15.732Z,1.56
2023-02-11T18:18:43.504Z,1.45
2023-02-11T18:21:15.797Z,1.42
2023-02-11T18:23:43.323Z,1.37
2023-02-11T18:26:12.192Z,1.37
2023-02-11T18:28:39.043Z,1.47
2023-02-11T18:31:06.822Z,1.44
2023-02-11T18:33:34.063Z,1.39
2023-02-11T18:36:06.293Z,1.46
2023-02-11T18:38:33.371Z,1.38
2023-02-11T18:41:00.115Z,1.26
2023-02-11T18:43:31.527Z,1.19
2023-02-11T18:45:58.178Z,1.05
2023-02-11T18:48:27.072Z,0.98
2023-02-11T18:50:54.874Z,0.85
2023-02-11T18:53:22.373Z,0.77
2023-02-11T18:55:49.510Z,0.67
2023-02-11T18:58:16.229Z,0.57
2023-02-11T19:00:45.576Z,0.45
2023-02-11T19:03:12.378Z,0.38
2023-02-11T19:05:42.703Z,0.33
2023-02-11T19:08:09.392Z,0.22
2023-02-11T19:10:40.236Z,0.25
2023-02-11T19:13:06.937Z,0.21
2023-02-11T19:15:33.581Z,0.15
2023-02-11T19:18:00.154Z,0.11
2023-02-11T19:20:27.188Z,0.10
2023-02-11T19:22:53.779Z,0.09
2023-02-11T19:25:20.347Z,-0.02
2023-02-11T19:27:46.904Z,-0.05
2023-02-11T19:30:13.776Z,-0.21
2023-02-11T19:32:40.353Z,-0.23
2023-02-11T19:35:07.388Z,-0.37
2023-02-11T19:37:33.970Z,-0.42
2023-02-11T19:40:00.582Z,-0.40
2023-02-11T19:42:27.696Z,-0.43
2023-02-11T19:44:54.405Z,-0.38
2023-02-11T19:47:27.530Z,-0.51
2023-02-11T19:49:54.207Z,-0.54
2023-02-11T19:52:20.843Z,-0.48
2023-02-11T19:54:47.496Z,-0.32
2023-02-11T19:57:14.083Z,-0.38
2023-02-11T19:59:40.815Z,-0.56
2023-02-11T20:02:08.051Z,-0.70
2023-02-11T20:04:34.681Z,-0.71
2023-02-11T20:07:01.256Z,-0.82
2023-02-11T20:09:29.063Z,-0.80
2023-02-11T20:11:55.639Z,-0.92
2023-02-11T20:14:22.253Z,-0.93
2023-02-11T20:16:50.087Z,-0.96
2023-02-11T20:19:21.318Z,-0.89
2023-02-11T20:21:51.101Z,-0.93
2023-02-11T20:24:19.145Z,-0.94
2023-02-11T20:26:48.167Z,-0.96
2023-02-11T20:29:17.313Z,-0.95
2023-02-11T20:31:44.136Z,-0.94
2023-02-11T20:34:12.090Z,-0.96
2023-02-11T20:36:40.256Z,-0.98
2023-02-11T20:39:07.602Z,-1.03
2023-02-11T20:41:36.448Z,-1.07
2023-02-11T20:44:06.447Z,-1.07
2023-02-11T20:46:34.250Z,-1.13
2023-02-11T20:49:02.281Z,-1.07
2023-02-11T20:51:31.684Z,-1.12
2023-02-11T20:53:59.009Z,-1.09
2023-02-11T20:56:28.751Z,-1.08
2023-02-11T20:58:57.735Z,-1.14
2023-02-11T21:01:33.968Z,-1.13
2023-02-11T21:04:10.848Z,-1.08
2023-02-11T21:06:41.278Z,-1.07
2023-02-11T21:09:09.700Z,-1.03
2023-02-11T21:11:36.320Z,-0.98
2023-02-11T21:14:03.162Z,-1.11
2023-02-11T21:16:29.988Z,-1.09
2023-02-11T21:18:56.903Z,-1.14
2023-02-11T21:21:23.804Z,-0.98
2023-02-11T21:23:50.418Z,-1.04
2023-02-11T21:26:17.292Z,-1.08
2023-02-11T21:28:44.078Z,-1.00
2023-02-11T21:31:19.750Z,-1.10
2023-02-11T21:33:46.573Z,-1.25
2023-02-11T21:36:14.899Z,-1.17
2023-02-11T21:38:41.861Z,-1.15
2023-02-11T21:41:08.710Z,-1.15
2023-02-11T21:43:35.441Z,-1.02
2023-02-11T21:46:08.386Z,-1.00
2023-02-11T21:48:35.141Z,-1.14
2023-02-11T21:51:06.250Z,-1.13
2023-02-11T21:53:33.333Z,-1.19
2023-02-11T21:56:18.561Z,-1.16
2023-02-11T21:58:46.223Z,-1.16
2023-02-11T22:01:17.326Z,-1.23
2023-02-11T22:03:44.928Z,-1.14
2023-02-11T22:06:14.384Z,-1.01
2023-02-11T22:08:41.433Z,-1.10
2023-02-11T22:11:12.215Z,-1.10
2023-02-11T22:13:39.338Z,-1.12
2023-02-11T22:16:11.922Z,-1.16
2023-02-11T22:18:39.685Z,-1.10
2023-02-11T22:21:12.382Z,-1.07
2023-02-11T22:23:39.609Z,-1.04
2023-02-11T22:26:09.261Z,-1.02
2023-02-11T22:28:38.813Z,-0.99
2023-02-11T22:31:05.490Z,-0.92
2023-02-11T22:33:32.192Z,-0.88
2023-02-11T22:36:04.820Z,-0.93
2023-02-11T22:38:32.643Z,-0.99
2023-02-11T22:41:00.537Z,-0.96
2023-02-11T22:43:27.512Z,-0.98
2023-02-11T22:45:56.452Z,-1.04
2023-02-11T22:48:23.357Z,-1.03
2023-02-11T22:50:49.989Z,-1.02
2023-02-11T22:53:16.630Z,-0.95
2023-02-11T22:55:43.494Z,-0.86
2023-02-11T22:58:10.171Z,-0.86
2023-02-11T23:00:42.116Z,-0.86
2023-02-11T23:03:10.235Z,-1.01
2023-02-11T23:05:41.271Z,-0.89
2023-02-11T23:08:10.251Z,-0.86
2023-02-11T23:10:38.610Z,-0.77
2023-02-11T23:13:06.982Z,-0.71
2023-02-11T23:15:33.932Z,-0.71
2023-02-11T23:18:00.588Z,-0.64
2023-02-11T23:20:27.232Z,-0.81
2023-02-11T23:22:53.840Z,-0.80
2023-02-11T23:25:20.483Z,-0.69
2023-02-11T23:27:47.085Z,-0.69
2023-02-11T23:30:14.271Z,-0.73
2023-02-11T23:32:40.954Z,-0.64
2023-02-11T23:35:08.087Z,-0.59
2023-02-11T23:37:34.756Z,-0.85
2023-02-11T23:40:01.373Z,-0.86
2023-02-11T23:42:29.167Z,-0.89
2023-02-11T23:44:55.783Z,-0.84
2023-02-11T23:47:22.341Z,-0.95
2023-02-11T23:49:48.917Z,-1.02
2023-02-11T23:52:15.495Z,-1.07
2023-02-11T23:54:43.348Z,-1.00
2023-02-11T23:57:10.040Z,-1.07
2023-02-11T23:59:36.633Z,-0.93
